sensor_id;sensor_type;location;lat;lon;timestamp;pressure;altitude;pressure_sealevel;temperature;humidity
7180;BME280;3631;42.152;24.756;2023-02-12T00:02:10;100431.22;;;1.34;51.68
7180;BME280;3631;42.152;24.756;2023-02-12T00:05:20;100428.78;;;1.40;51.65
7180;BME280;3631;42.152;24.756;2023-02-12T00:08:21;100418.34;;;1.31;51.95
7180;BME280;3631;42.152;24.756;2023-02-12T00:11:35;100421.00;;;1.35;51.96
7180;BME280;3631;42.152;24.756;2023-02-12T00:14:26;100406.63;;;1.40;51.50
7180;BME280;3631;42.152;24.756;2023-02-12T00:17:19;100409.94;;;1.36;52.21
7180;BME280;3631;42.152;24.756;2023-02-12T00:20:09;100416.72;;;1.36;51.50
7180;BME280;3631;42.152;24.756;2023-02-12T00:23:14;100416.47;;;1.24;52.44
7180;BME280;3631;42.152;24.756;2023-02-12T00:26:09;100414.91;;;1.30;51.46
7180;BME280;3631;42.152;24.756;2023-02-12T00:29:11;100415.63;;;1.25;51.64
7180;BME280;3631;42.152;24.756;2023-02-12T00:32:10;100404.53;;;1.24;51.73
7180;BME280;3631;42.152;24.756;2023-02-12T00:35:08;100391.88;;;1.29;52.07
7180;BME280;3631;42.152;24.756;2023-02-12T00:37:44;100394.50;;;1.32;52.31
7180;BME280;3631;42.152;24.756;2023-02-12T00:40:39;100389.25;;;1.27;51.73
7180;BME280;3631;42.152;24.756;2023-02-12T00:43:34;100337.66;;;1.06;51.93
7180;BME280;3631;42.152;24.756;2023-02-12T00:46:42;100375.84;;;1.37;51.25
7180;BME280;3631;42.152;24.756;2023-02-12T00:49:42;100372.41;;;1.35;51.69
7180;BME280;3631;42.152;24.756;2023-02-12T00:52:34;100361.09;;;1.26;51.74
7180;BME280;3631;42.152;24.756;2023-02-12T00:55:37;100363.69;;;1.27;51.72
7180;BME280;3631;42.152;24.756;2023-02-12T00:58:22;100358.50;;;1.23;52.10
7180;BME280;3631;42.152;24.756;2023-02-12T01:01:17;100348.47;;;1.32;51.82
7180;BME280;3631;42.152;24.756;2023-02-12T01:04:15;100356.25;;;1.38;51.57
7180;BME280;3631;42.152;24.756;2023-02-12T01:10:43;100318.91;;;1.44;49.86
7180;BME280;3631;42.152;24.756;2023-02-12T01:13:40;100338.09;;;1.66;48.51
7180;BME280;3631;42.152;24.756;2023-02-12T01:16:26;100340.94;;;1.80;48.22
7180;BME280;3631;42.152;24.756;2023-02-12T01:19:16;100337.75;;;1.93;46.96
7180;BME280;3631;42.152;24.756;2023-02-12T01:22:21;100344.00;;;2.07;46.72
7180;BME280;3631;42.152;24.756;2023-02-12T01:25:19;100338.19;;;2.16;46.67
7180;BME280;3631;42.152;24.756;2023-02-12T01:28:15;100335.75;;;2.22;46.61
7180;BME280;3631;42.152;24.756;2023-02-12T01:31:16;100321.19;;;2.19;45.62
7180;BME280;3631;42.152;24.756;2023-02-12T01:34:04;100340.25;;;2.35;45.83
7180;BME280;3631;42.152;24.756;2023-02-12T01:37:04;100327.47;;;2.38;45.86
7180;BME280;3631;42.152;24.756;2023-02-12T01:40:12;100326.59;;;2.35;45.43
7180;BME280;3631;42.152;24.756;2023-02-12T01:43:13;100282.03;;;2.27;44.55
7180;BME280;3631;42.152;24.756;2023-02-12T01:46:08;100317.59;;;2.60;43.91
7180;BME280;3631;42.152;24.756;2023-02-12T01:49:02;100321.28;;;2.77;43.33
7180;BME280;3631;42.152;24.756;2023-02-12T01:52:05;100316.25;;;2.84;44.06
7180;BME280;3631;42.152;24.756;2023-02-12T01:55:12;100317.25;;;2.94;43.20
7180;BME280;3631;42.152;24.756;2023-02-12T01:58:10;100315.72;;;3.04;42.86
7180;BME280;3631;42.152;24.756;2023-02-12T02:01:12;100310.59;;;3.05;43.21
7180;BME280;3631;42.152;24.756;2023-02-12T02:04:14;100296.94;;;3.08;43.36
7180;BME280;3631;42.152;24.756;2023-02-12T02:07:14;100308.94;;;3.09;42.80
7180;BME280;3631;42.152;24.756;2023-02-12T02:10:17;100317.59;;;3.17;43.04
7180;BME280;3631;42.152;24.756;2023-02-12T02:16:23;100310.47;;;2.96;42.85
7180;BME280;3631;42.152;24.756;2023-02-12T02:19:29;100314.84;;;3.03;42.46
7180;BME280;3631;42.152;24.756;2023-02-12T02:22:37;100311.44;;;3.04;41.87
7180;BME280;3631;42.152;24.756;2023-02-12T02:25:54;100321.53;;;2.92;42.65
7180;BME280;3631;42.152;24.756;2023-02-12T02:29:08;100325.78;;;2.91;42.22
7180;BME280;3631;42.152;24.756;2023-02-12T02:32:18;100323.19;;;2.88;41.96
7180;BME280;3631;42.152;24.756;2023-02-12T02:35:31;100318.69;;;2.75;42.03
7180;BME280;3631;42.152;24.756;2023-02-12T02:38:32;100319.53;;;2.74;42.04
7180;BME280;3631;42.152;24.756;2023-02-12T02:41:24;100318.63;;;2.69;42.87
7180;BME280;3631;42.152;24.756;2023-02-12T02:44:25;100327.09;;;2.65;42.91
7180;BME280;3631;42.152;24.756;2023-02-12T02:50:42;100328.06;;;2.73;44.17
7180;BME280;3631;42.152;24.756;2023-02-12T02:53:46;100320.47;;;2.79;44.62
7180;BME280;3631;42.152;24.756;2023-02-12T02:56:43;100329.22;;;2.92;44.24
7180;BME280;3631;42.152;24.756;2023-02-12T02:59:44;100322.41;;;2.96;44.14
7180;BME280;3631;42.152;24.756;2023-02-12T03:03:07;100328.53;;;3.04;43.72
7180;BME280;3631;42.152;24.756;2023-02-12T03:06:08;100313.06;;;2.99;44.27
7180;BME280;3631;42.152;24.756;2023-02-12T03:09:05;100326.09;;;3.13;43.46
7180;BME280;3631;42.152;24.756;2023-02-12T03:12:08;100318.97;;;2.93;44.16
7180;BME280;3631;42.152;24.756;2023-02-12T03:14:59;100320.03;;;3.08;43.33
7180;BME280;3631;42.152;24.756;2023-02-12T03:17:51;100317.44;;;3.05;43.75
7180;BME280;3631;42.152;24.756;2023-02-12T03:20:54;100316.69;;;3.12;43.08
7180;BME280;3631;42.152;24.756;2023-02-12T03:24:10;100324.31;;;3.09;43.10
7180;BME280;3631;42.152;24.756;2023-02-12T03:27:06;100314.91;;;3.09;43.13
7180;BME280;3631;42.152;24.756;2023-02-12T03:30:08;100325.13;;;3.06;42.83
7180;BME280;3631;42.152;24.756;2023-02-12T03:33:16;100329.38;;;3.03;42.76
7180;BME280;3631;42.152;24.756;2023-02-12T03:36:26;100318.13;;;2.95;43.50
7180;BME280;3631;42.152;24.756;2023-02-12T03:39:33;100321.56;;;2.95;43.89
7180;BME280;3631;42.152;24.756;2023-02-12T03:42:33;100320.63;;;2.90;43.02
7180;BME280;3631;42.152;24.756;2023-02-12T03:45:33;100323.19;;;2.88;42.91
7180;BME280;3631;42.152;24.756;2023-02-12T03:48:34;100318.81;;;2.84;43.45
7180;BME280;3631;42.152;24.756;2023-02-12T03:51:34;100311.91;;;2.77;43.77
7180;BME280;3631;42.152;24.756;2023-02-12T03:54:44;100308.56;;;2.81;43.80
7180;BME280;3631;42.152;24.756;2023-02-12T03:57:45;100313.63;;;2.78;44.24
7180;BME280;3631;42.152;24.756;2023-02-12T04:00:50;100317.06;;;2.79;44.07
7180;BME280;3631;42.152;24.756;2023-02-12T04:04:02;100323.94;;;2.83;43.50
7180;BME280;3631;42.152;24.756;2023-02-12T04:07:00;100317.91;;;2.79;43.31
7180;BME280;3631;42.152;24.756;2023-02-12T04:09:50;100319.66;;;2.82;43.60
7180;BME280;3631;42.152;24.756;2023-02-12T04:15:52;100325.72;;;2.87;43.78
7180;BME280;3631;42.152;24.756;2023-02-12T04:18:53;100301.66;;;2.77;44.08
7180;BME280;3631;42.152;24.756;2023-02-12T04:22:13;100331.91;;;3.01;44.68
7180;BME280;3631;42.152;24.756;2023-02-12T04:25:19;100329.28;;;2.97;43.97
7180;BME280;3631;42.152;24.756;2023-02-12T04:28:25;100334.53;;;3.04;43.49
7180;BME280;3631;42.152;24.756;2023-02-12T04:34:34;100339.75;;;3.12;43.64
7180;BME280;3631;42.152;24.756;2023-02-12T04:37:42;100344.09;;;3.14;43.77
7180;BME280;3631;42.152;24.756;2023-02-12T04:40:47;100340.00;;;3.30;42.72
7180;BME280;3631;42.152;24.756;2023-02-12T04:43:42;100345.31;;;3.42;41.99
7180;BME280;3631;42.152;24.756;2023-02-12T04:46:33;100343.63;;;3.44;42.02
7180;BME280;3631;42.152;24.756;2023-02-12T04:49:27;100347.25;;;3.58;41.99
7180;BME280;3631;42.152;24.756;2023-02-12T04:52:20;100347.25;;;3.60;41.60
7180;BME280;3631;42.152;24.756;2023-02-12T04:55:22;100342.97;;;3.62;42.12
7180;BME280;3631;42.152;24.756;2023-02-12T04:58:24;100351.69;;;3.75;42.10
7180;BME280;3631;42.152;24.756;2023-02-12T05:01:16;100346.50;;;3.69;42.16
7180;BME280;3631;42.152;24.756;2023-02-12T05:04:06;100322.44;;;3.59;42.22
7180;BME280;3631;42.152;24.756;2023-02-12T05:07:13;100352.56;;;3.72;42.38
7180;BME280;3631;42.152;24.756;2023-02-12T05:10:12;100349.97;;;3.72;43.01
7180;BME280;3631;42.152;24.756;2023-02-12T05:13:05;100358.56;;;3.76;43.13
7180;BME280;3631;42.152;24.756;2023-02-12T05:16:03;100363.66;;;3.71;43.19
7180;BME280;3631;42.152;24.756;2023-02-12T05:18:48;100371.25;;;3.63;43.49
7180;BME280;3631;42.152;24.756;2023-02-12T05:21:48;100374.69;;;3.65;43.24
7180;BME280;3631;42.152;24.756;2023-02-12T05:24:43;100382.28;;;3.56;43.25
7180;BME280;3631;42.152;24.756;2023-02-12T05:27:36;100390.06;;;3.61;43.06
7180;BME280;3631;42.152;24.756;2023-02-12T05:30:36;100372.94;;;3.63;43.25
7180;BME280;3631;42.152;24.756;2023-02-12T05:34:00;100372.91;;;3.61;43.94
7180;BME280;3631;42.152;24.756;2023-02-12T05:37:16;100375.66;;;3.72;44.02
7180;BME280;3631;42.152;24.756;2023-02-12T05:40:08;100377.34;;;3.72;44.32
7180;BME280;3631;42.152;24.756;2023-02-12T05:42:53;100388.53;;;3.77;44.14
7180;BME280;3631;42.152;24.756;2023-02-12T05:45:41;100378.25;;;3.77;44.27
7180;BME280;3631;42.152;24.756;2023-02-12T05:48:20;100380.91;;;3.81;43.71
7180;BME280;3631;42.152;24.756;2023-02-12T05:51:07;100380.09;;;3.87;44.10
7180;BME280;3631;42.152;24.756;2023-02-12T05:53:45;100389.69;;;4.00;43.77
7180;BME280;3631;42.152;24.756;2023-02-12T05:56:25;100392.47;;;4.21;44.13
7180;BME280;3631;42.152;24.756;2023-02-12T05:59:05;100368.50;;;4.22;42.75
7180;BME280;3631;42.152;24.756;2023-02-12T06:01:43;100400.41;;;4.40;41.97
7180;BME280;3631;42.152;24.756;2023-02-12T06:04:20;100397.00;;;4.44;42.30
7180;BME280;3631;42.152;24.756;2023-02-12T06:06:54;100397.00;;;4.44;42.24
7180;BME280;3631;42.152;24.756;2023-02-12T06:09:29;100398.81;;;4.51;41.93
7180;BME280;3631;42.152;24.756;2023-02-12T06:12:01;100394.50;;;4.53;42.36
7180;BME280;3631;42.152;24.756;2023-02-12T06:14:39;100403.94;;;4.54;42.35
7180;BME280;3631;42.152;24.756;2023-02-12T06:17:15;100401.47;;;4.63;42.23
7180;BME280;3631;42.152;24.756;2023-02-12T06:19:54;100405.72;;;4.59;42.63
7180;BME280;3631;42.152;24.756;2023-02-12T06:22:40;100394.53;;;4.56;42.71
7180;BME280;3631;42.152;24.756;2023-02-12T06:25:30;100404.00;;;4.58;42.62
7180;BME280;3631;42.152;24.756;2023-02-12T06:28:00;100398.13;;;4.70;42.61
7180;BME280;3631;42.152;24.756;2023-02-12T06:30:38;100399.81;;;4.68;42.39
7180;BME280;3631;42.152;24.756;2023-02-12T06:33:27;100402.41;;;4.69;42.61
7180;BME280;3631;42.152;24.756;2023-02-12T06:39:46;100405.09;;;4.86;42.88
7180;BME280;3631;42.152;24.756;2023-02-12T06:42:59;100405.88;;;4.78;42.95
7180;BME280;3631;42.152;24.756;2023-02-12T06:45:49;100399.94;;;4.83;43.23
7180;BME280;3631;42.152;24.756;2023-02-12T06:48:51;100411.25;;;5.02;43.29
7180;BME280;3631;42.152;24.756;2023-02-12T06:55:10;100419.03;;;5.13;42.96
7180;BME280;3631;42.152;24.756;2023-02-12T06:58:03;100425.13;;;5.19;42.89
7180;BME280;3631;42.152;24.756;2023-02-12T07:00:56;100430.41;;;5.39;42.89
7180;BME280;3631;42.152;24.756;2023-02-12T07:03:43;100423.56;;;5.45;42.64
7180;BME280;3631;42.152;24.756;2023-02-12T07:06:22;100433.94;;;5.56;42.91
7180;BME280;3631;42.152;24.756;2023-02-12T07:09:09;100429.69;;;5.61;42.99
7180;BME280;3631;42.152;24.756;2023-02-12T07:12:03;100430.72;;;5.91;42.94
7180;BME280;3631;42.152;24.756;2023-02-12T07:14:49;100433.34;;;6.03;42.82
7180;BME280;3631;42.152;24.756;2023-02-12T07:17:46;100426.53;;;6.18;43.06
7180;BME280;3631;42.152;24.756;2023-02-12T07:20:40;100429.13;;;6.26;43.45
7180;BME280;3631;42.152;24.756;2023-02-12T07:23:23;100431.72;;;6.25;43.08
7180;BME280;3631;42.152;24.756;2023-02-12T07:26:03;100368.06;;;5.98;43.22
7180;BME280;3631;42.152;24.756;2023-02-12T07:29:05;100426.59;;;6.38;44.05
7180;BME280;3631;42.152;24.756;2023-02-12T07:32:03;100427.47;;;6.31;43.93
7180;BME280;3631;42.152;24.756;2023-02-12T07:34:53;100430.91;;;6.48;43.34
7180;BME280;3631;42.152;24.756;2023-02-12T07:37:45;100430.09;;;6.52;43.63
7180;BME280;3631;42.152;24.756;2023-02-12T07:40:43;100428.38;;;6.68;43.25
7180;BME280;3631;42.152;24.756;2023-02-12T07:43:45;100435.28;;;6.74;43.79
7180;BME280;3631;42.152;24.756;2023-02-12T07:46:40;100428.38;;;6.79;43.30
7180;BME280;3631;42.152;24.756;2023-02-12T07:49:43;100431.84;;;6.87;42.99
7180;BME280;3631;42.152;24.756;2023-02-12T07:52:32;100435.28;;;7.01;43.02
7180;BME280;3631;42.152;24.756;2023-02-12T07:55:14;100443.03;;;7.04;43.22
7180;BME280;3631;42.152;24.756;2023-02-12T07:58:03;100428.41;;;7.03;43.84
7180;BME280;3631;42.152;24.756;2023-02-12T08:01:27;100448.19;;;7.01;42.92
7180;BME280;3631;42.152;24.756;2023-02-12T08:04:36;100455.06;;;7.01;42.92
7180;BME280;3631;42.152;24.756;2023-02-12T08:07:36;100452.50;;;6.99;43.18
7180;BME280;3631;42.152;24.756;2023-02-12T08:10:35;100459.38;;;7.02;42.50
7180;BME280;3631;42.152;24.756;2023-02-12T08:13:32;100461.97;;;6.99;43.31
7180;BME280;3631;42.152;24.756;2023-02-12T08:16:11;100454.22;;;6.85;43.46
7180;BME280;3631;42.152;24.756;2023-02-12T08:21:49;100474.88;;;7.06;44.19
7180;BME280;3631;42.152;24.756;2023-02-12T08:24:22;100468.88;;;7.21;43.60
7180;BME280;3631;42.152;24.756;2023-02-12T08:26:54;100475.75;;;7.31;43.64
7180;BME280;3631;42.152;24.756;2023-02-12T08:29:26;100480.03;;;7.12;44.83
7180;BME280;3631;42.152;24.756;2023-02-12T08:32:02;100486.06;;;7.17;44.47
7180;BME280;3631;42.152;24.756;2023-02-12T08:34:50;100482.63;;;7.26;44.94
7180;BME280;3631;42.152;24.756;2023-02-12T08:37:24;100486.91;;;7.35;44.80
7180;BME280;3631;42.152;24.756;2023-02-12T08:39:56;100495.53;;;7.46;44.84
7180;BME280;3631;42.152;24.756;2023-02-12T08:42:32;100501.56;;;7.60;45.27
7180;BME280;3631;42.152;24.756;2023-02-12T08:45:03;100491.22;;;7.63;45.40
7180;BME280;3631;42.152;24.756;2023-02-12T08:47:40;100502.41;;;7.77;46.39
7180;BME280;3631;42.152;24.756;2023-02-12T08:50:27;100492.94;;;7.75;46.61
7180;BME280;3631;42.152;24.756;2023-02-12T08:53:07;100501.50;;;7.80;46.94
7180;BME280;3631;42.152;24.756;2023-02-12T08:56:01;100507.53;;;7.83;47.01
7180;BME280;3631;42.152;24.756;2023-02-12T08:58:49;100499.78;;;7.91;48.13
7180;BME280;3631;42.152;24.756;2023-02-12T09:01:48;100511.00;;;7.87;48.00
7180;BME280;3631;42.152;24.756;2023-02-12T09:08:07;100507.59;;;7.54;49.12
7180;BME280;3631;42.152;24.756;2023-02-12T09:11:07;100513.63;;;7.47;49.64
7180;BME280;3631;42.152;24.756;2023-02-12T09:14:04;100506.75;;;7.33;50.22
7180;BME280;3631;42.152;24.756;2023-02-12T09:16:56;100514.50;;;7.54;49.78
7180;BME280;3631;42.152;24.756;2023-02-12T09:19:51;100520.47;;;7.70;49.12
7180;BME280;3631;42.152;24.756;2023-02-12T09:22:39;100519.63;;;7.78;49.30
7180;BME280;3631;42.152;24.756;2023-02-12T09:25:48;100529.03;;;8.02;49.36
7180;BME280;3631;42.152;24.756;2023-02-12T09:28:45;100526.44;;;8.23;48.49
7180;BME280;3631;42.152;24.756;2023-02-12T09:31:45;100534.97;;;8.48;47.81
7180;BME280;3631;42.152;24.756;2023-02-12T09:34:34;100532.31;;;8.59;47.52
7180;BME280;3631;42.152;24.756;2023-02-12T09:37:14;100526.28;;;8.63;47.42
7180;BME280;3631;42.152;24.756;2023-02-12T09:39:50;100534.84;;;8.71;46.98
7180;BME280;3631;42.152;24.756;2023-02-12T09:43:04;100538.38;;;8.62;46.79
7180;BME280;3631;42.152;24.756;2023-02-12T09:45:51;100533.13;;;8.71;46.99
7180;BME280;3631;42.152;24.756;2023-02-12T09:48:59;100536.53;;;8.81;47.62
7180;BME280;3631;42.152;24.756;2023-02-12T09:51:56;100535.66;;;8.82;47.26
7180;BME280;3631;42.152;24.756;2023-02-12T09:55:04;100538.34;;;8.68;47.95
7180;BME280;3631;42.152;24.756;2023-02-12T09:57:50;100527.19;;;8.57;47.58
7180;BME280;3631;42.152;24.756;2023-02-12T10:00:23;100524.63;;;8.50;47.67
7180;BME280;3631;42.152;24.756;2023-02-12T10:02:58;100529.78;;;8.50;47.13
7180;BME280;3631;42.152;24.756;2023-02-12T10:05:41;100523.75;;;8.57;47.31
7180;BME280;3631;42.152;24.756;2023-02-12T10:08:37;100516.78;;;8.65;46.96
7180;BME280;3631;42.152;24.756;2023-02-12T10:11:49;100500.50;;;8.43;47.80
7180;BME280;3631;42.152;24.756;2023-02-12T10:14:59;100519.38;;;8.60;47.00
7180;BME280;3631;42.152;24.756;2023-02-12T10:18:02;100515.88;;;8.77;47.03
7180;BME280;3631;42.152;24.756;2023-02-12T10:21:06;100517.53;;;8.87;45.80
7180;BME280;3631;42.152;24.756;2023-02-12T10:24:14;100519.19;;;9.00;45.05
7180;BME280;3631;42.152;24.756;2023-02-12T10:27:08;100510.41;;;9.19;44.96
7180;BME280;3631;42.152;24.756;2023-02-12T10:30:01;100523.19;;;9.40;44.90
7180;BME280;3631;42.152;24.756;2023-02-12T10:32:42;100521.47;;;9.39;43.91
7180;BME280;3631;42.152;24.756;2023-02-12T10:35:17;100523.97;;;9.48;44.34
7180;BME280;3631;42.152;24.756;2023-02-12T10:37:51;100512.66;;;9.62;43.63
7180;BME280;3631;42.152;24.756;2023-02-12T10:40:33;100514.22;;;9.79;43.38
7180;BME280;3631;42.152;24.756;2023-02-12T10:43:12;100519.22;;;9.95;43.22
7180;BME280;3631;42.152;24.756;2023-02-12T10:45:51;100509.78;;;9.92;44.21
7180;BME280;3631;42.152;24.756;2023-02-12T10:48:35;100516.53;;;10.05;44.27
7180;BME280;3631;42.152;24.756;2023-02-12T10:54:52;100526.78;;;10.19;43.33
7180;BME280;3631;42.152;24.756;2023-02-12T10:57:54;100520.78;;;10.12;43.28
7180;BME280;3631;42.152;24.756;2023-02-12T11:01:14;100514.78;;;10.07;43.67
7180;BME280;3631;42.152;24.756;2023-02-12T11:04:18;100520.84;;;10.05;45.22
7180;BME280;3631;42.152;24.756;2023-02-12T11:07:14;100520.84;;;10.05;45.06
7180;BME280;3631;42.152;24.756;2023-02-12T11:10:01;100526.97;;;9.99;43.99
7180;BME280;3631;42.152;24.756;2023-02-12T11:13:00;100533.94;;;9.94;43.64
7180;BME280;3631;42.152;24.756;2023-02-12T11:16:04;100531.41;;;9.90;43.41
7180;BME280;3631;42.152;24.756;2023-02-12T11:19:18;100540.91;;;9.92;43.23
7180;BME280;3631;42.152;24.756;2023-02-12T11:22:27;100541.69;;;9.97;43.22
7180;BME280;3631;42.152;24.756;2023-02-12T11:25:25;100532.09;;;10.05;43.03
7180;BME280;3631;42.152;24.756;2023-02-12T11:28:22;100526.97;;;10.01;42.71
7180;BME280;3631;42.152;24.756;2023-02-12T11:31:28;100541.44;;;10.26;42.50
7180;BME280;3631;42.152;24.756;2023-02-12T11:34:26;100538.75;;;10.34;41.95
7180;BME280;3631;42.152;24.756;2023-02-12T11:37:31;100539.47;;;10.45;41.73
7180;BME280;3631;42.152;24.756;2023-02-12T11:40:29;100549.69;;;10.59;42.01
7180;BME280;3631;42.152;24.756;2023-02-12T11:43:49;100548.22;;;10.38;41.86
7180;BME280;3631;42.152;24.756;2023-02-12T11:47:00;100538.03;;;10.21;42.07
7180;BME280;3631;42.152;24.756;2023-02-12T11:50:08;100551.16;;;10.04;41.75
7180;BME280;3631;42.152;24.756;2023-02-12T11:53:07;100538.09;;;10.12;42.32
7180;BME280;3631;42.152;24.756;2023-02-12T11:55:39;100538.88;;;10.17;41.91
7180;BME280;3631;42.152;24.756;2023-02-12T11:58:19;100531.97;;;10.16;42.01
7180;BME280;3631;42.152;24.756;2023-02-12T12:01:00;100515.84;;;9.88;42.16
7180;BME280;3631;42.152;24.756;2023-02-12T12:03:51;100534.75;;;9.99;42.82
7180;BME280;3631;42.152;24.756;2023-02-12T12:06:51;100525.97;;;10.14;42.58
7180;BME280;3631;42.152;24.756;2023-02-12T12:10:14;100537.22;;;10.11;42.03
7180;BME280;3631;42.152;24.756;2023-02-12T12:13:17;100533.69;;;10.23;42.45
7180;BME280;3631;42.152;24.756;2023-02-12T12:16:21;100538.75;;;10.34;42.13
7180;BME280;3631;42.152;24.756;2023-02-12T12:19:24;100535.81;;;10.61;41.93
7180;BME280;3631;42.152;24.756;2023-02-12T12:22:46;100540.03;;;10.70;41.42
7180;BME280;3631;42.152;24.756;2023-02-12T12:25:55;100541.66;;;10.77;41.58
7180;BME280;3631;42.152;24.756;2023-02-12T12:28:56;100544.25;;;10.78;41.34
7180;BME280;3631;42.152;24.756;2023-02-12T12:31:45;100553.78;;;10.76;41.61
7180;BME280;3631;42.152;24.756;2023-02-12T12:34:34;100554.75;;;10.71;41.46
7180;BME280;3631;42.152;24.756;2023-02-12T12:37:46;100552.16;;;10.69;41.70
7180;BME280;3631;42.152;24.756;2023-02-12T12:44:06;100568.66;;;10.65;41.53
7180;BME280;3631;42.152;24.756;2023-02-12T12:50:27;100575.56;;;10.66;41.70
7180;BME280;3631;42.152;24.756;2023-02-12T12:53:49;100568.78;;;10.54;41.96
7180;BME280;3631;42.152;24.756;2023-02-12T13:06:26;100580.25;;;10.37;41.98
7180;BME280;3631;42.152;24.756;2023-02-12T13:09:37;100590.66;;;10.34;42.26
7180;BME280;3631;42.152;24.756;2023-02-12T13:12:56;100586.25;;;10.39;42.46
7180;BME280;3631;42.152;24.756;2023-02-12T13:16:05;100585.34;;;10.43;42.70
7180;BME280;3631;42.152;24.756;2023-02-12T13:19:02;100572.44;;;10.38;42.22
7180;BME280;3631;42.152;24.756;2023-02-12T13:21:54;100597.53;;;10.38;42.14
7180;BME280;3631;42.152;24.756;2023-02-12T13:24:36;100601.88;;;10.34;42.28
7180;BME280;3631;42.152;24.756;2023-02-12T13:27:15;100601.06;;;10.28;42.41
7180;BME280;3631;42.152;24.756;2023-02-12T13:30:17;100606.34;;;10.20;42.80
7180;BME280;3631;42.152;24.756;2023-02-12T13:33:13;100618.47;;;10.19;42.25
7180;BME280;3631;42.152;24.756;2023-02-12T13:36:08;100615.91;;;10.13;42.76
7180;BME280;3631;42.152;24.756;2023-02-12T13:39:00;100620.19;;;10.19;42.75
7180;BME280;3631;42.152;24.756;2023-02-12T13:41:55;100625.44;;;10.11;42.47
7180;BME280;3631;42.152;24.756;2023-02-12T13:44:35;100625.47;;;10.05;43.39
7180;BME280;3631;42.152;24.756;2023-02-12T13:47:17;100628.09;;;10.04;42.87
7180;BME280;3631;42.152;24.756;2023-02-12T13:50:30;100624.66;;;10.00;42.99
7180;BME280;3631;42.152;24.756;2023-02-12T13:53:46;100622.06;;;10.03;43.17
7180;BME280;3631;42.152;24.756;2023-02-12T13:56:47;100629.78;;;10.06;42.99
7180;BME280;3631;42.152;24.756;2023-02-12T13:59:59;100632.38;;;10.09;42.89
7180;BME280;3631;42.152;24.756;2023-02-12T14:02:47;100630.72;;;10.02;43.20
7180;BME280;3631;42.152;24.756;2023-02-12T14:05:44;100636.69;;;10.09;43.17
7180;BME280;3631;42.152;24.756;2023-02-12T14:08:41;100639.22;;;10.16;43.38
7180;BME280;3631;42.152;24.756;2023-02-12T14:11:37;100647.03;;;10.13;43.87
7180;BME280;3631;42.152;24.756;2023-02-12T14:14:56;100645.41;;;10.02;43.64
7180;BME280;3631;42.152;24.756;2023-02-12T14:18:26;100660.25;;;9.83;43.80
7180;BME280;3631;42.152;24.756;2023-02-12T14:25:00;100665.50;;;9.71;43.98
7180;BME280;3631;42.152;24.756;2023-02-12T14:28:08;100669.09;;;9.52;45.17
7180;BME280;3631;42.152;24.756;2023-02-12T14:31:35;100678.69;;;9.37;46.17
7180;BME280;3631;42.152;24.756;2023-02-12T14:37:56;100684.78;;;9.26;47.08
7180;BME280;3631;42.152;24.756;2023-02-12T14:40:59;100690.81;;;9.26;46.92
7180;BME280;3631;42.152;24.756;2023-02-12T14:47:59;100711.59;;;9.16;46.68
7180;BME280;3631;42.152;24.756;2023-02-12T14:50:47;100722.00;;;9.08;47.37
7180;BME280;3631;42.152;24.756;2023-02-12T14:53:39;100710.84;;;8.91;48.58
7180;BME280;3631;42.152;24.756;2023-02-12T14:56:29;100729.84;;;8.87;48.00
7180;BME280;3631;42.152;24.756;2023-02-12T14:59:09;100740.19;;;8.84;48.41
7180;BME280;3631;42.152;24.756;2023-02-12T15:02:07;100746.25;;;8.78;48.86
7180;BME280;3631;42.152;24.756;2023-02-12T15:04:55;100702.31;;;8.43;48.64
7180;BME280;3631;42.152;24.756;2023-02-12T15:07:42;100754.06;;;8.57;48.93
7180;BME280;3631;42.152;24.756;2023-02-12T15:10:22;100759.25;;;8.46;49.96
7180;BME280;3631;42.152;24.756;2023-02-12T15:13:25;100760.94;;;8.40;50.39
7180;BME280;3631;42.152;24.756;2023-02-12T15:16:25;100769.56;;;8.37;50.52
7180;BME280;3631;42.152;24.756;2023-02-12T15:19:43;100776.44;;;8.29;50.54
7180;BME280;3631;42.152;24.756;2023-02-12T15:22:45;100781.59;;;8.26;50.28
7180;BME280;3631;42.152;24.756;2023-02-12T15:25:31;100789.41;;;8.33;51.03
7180;BME280;3631;42.152;24.756;2023-02-12T15:28:16;100792.00;;;8.35;50.89
7180;BME280;3631;42.152;24.756;2023-02-12T15:30:58;100788.53;;;8.36;50.18
7180;BME280;3631;42.152;24.756;2023-02-12T15:33:41;100802.34;;;8.35;50.22
7180;BME280;3631;42.152;24.756;2023-02-12T15:36:43;100799.78;;;8.35;50.06
7180;BME280;3631;42.152;24.756;2023-02-12T15:42:59;100816.09;;;8.25;50.89
7180;BME280;3631;42.152;24.756;2023-02-12T15:45:55;100823.88;;;8.22;51.26
7180;BME280;3631;42.152;24.756;2023-02-12T15:48:55;100822.97;;;8.18;51.71
7180;BME280;3631;42.152;24.756;2023-02-12T15:52:06;100829.00;;;8.11;51.73
7180;BME280;3631;42.152;24.756;2023-02-12T15:55:15;100842.78;;;8.09;52.21
7180;BME280;3631;42.152;24.756;2023-02-12T15:58:23;100849.66;;;8.03;52.22
7180;BME280;3631;42.152;24.756;2023-02-12T16:01:14;100850.47;;;7.83;52.61
7180;BME280;3631;42.152;24.756;2023-02-12T16:07:46;100862.53;;;7.82;52.82
7180;BME280;3631;42.152;24.756;2023-02-12T16:10:38;100879.75;;;7.79;52.81
7180;BME280;3631;42.152;24.756;2023-02-12T16:13:31;100879.63;;;7.53;54.21
7180;BME280;3631;42.152;24.756;2023-02-12T16:16:29;100890.84;;;7.59;54.55
7180;BME280;3631;42.152;24.756;2023-02-12T16:19:27;100896.00;;;7.55;54.04
7180;BME280;3631;42.152;24.756;2023-02-12T16:22:36;100900.31;;;7.57;53.81
7180;BME280;3631;42.152;24.756;2023-02-12T16:25:34;100907.25;;;7.64;54.00
7180;BME280;3631;42.152;24.756;2023-02-12T16:28:28;100914.09;;;7.55;54.04
7180;BME280;3631;42.152;24.756;2023-02-12T16:31:26;100924.38;;;7.50;54.64
7180;BME280;3631;42.152;24.756;2023-02-12T16:34:03;100947.66;;;7.52;54.56
7180;BME280;3631;42.152;24.756;2023-02-12T16:40:45;100960.44;;;7.37;54.82
7180;BME280;3631;42.152;24.756;2023-02-12T16:46:55;100960.50;;;7.41;55.01
7180;BME280;3631;42.152;24.756;2023-02-12T16:49:57;100965.69;;;7.46;55.13
7180;BME280;3631;42.152;24.756;2023-02-12T16:52:46;100969.16;;;7.45;54.37
7180;BME280;3631;42.152;24.756;2023-02-12T16:55:59;100970.88;;;7.49;55.03
7180;BME280;3631;42.152;24.756;2023-02-12T16:58:54;100975.16;;;7.47;54.83